sensor_id;sensor_type;location;lat;lon;timestamp;pressure;altitude;pressure_sealevel;temperature;humidity
6208;BME280;3137;51.550;7.060;2022-08-25T00:00:11;66319.94;;;20.11;69.74
6208;BME280;3137;51.550;7.060;2022-08-25T00:05:05;66302.22;;;19.97;70.38
6208;BME280;3137;51.550;7.060;2022-08-25T00:07:34;66301.50;;;19.94;70.38
6208;BME280;3137;51.550;7.060;2022-08-25T00:10:02;66299.09;;;19.90;70.57
6208;BME280;3137;51.550;7.060;2022-08-25T00:14:55;66286.56;;;19.83;71.38
6208;BME280;3137;51.550;7.060;2022-08-25T00:17:22;66283.22;;;19.80;71.12
6208;BME280;3137;51.550;7.060;2022-08-25T00:19:48;66282.34;;;19.74;71.45
6208;BME280;3137;51.550;7.060;2022-08-25T00:22:15;66279.38;;;19.69;71.18
6208;BME280;3137;51.550;7.060;2022-08-25T00:24:41;66284.09;;;19.69;71.29
6208;BME280;3137;51.550;7.060;2022-08-25T00:27:08;66283.44;;;19.75;70.77
6208;BME280;3137;51.550;7.060;2022-08-25T00:29:36;66278.59;;;19.73;70.70
6208;BME280;3137;51.550;7.060;2022-08-25T00:32:04;66272.75;;;19.73;70.75
6208;BME280;3137;51.550;7.060;2022-08-25T00:34:33;66278.59;;;19.73;70.51
6208;BME280;3137;51.550;7.060;2022-08-25T00:37:02;66277.06;;;19.74;70.46
6208;BME280;3137;51.550;7.060;2022-08-25T00:39:29;66284.00;;;19.76;70.17
6208;BME280;3137;51.550;7.060;2022-08-25T00:41:56;66287.53;;;19.82;70.09
6208;BME280;3137;51.550;7.060;2022-08-25T00:46:54;66277.63;;;19.75;69.88
6208;BME280;3137;51.550;7.060;2022-08-25T00:49:47;66270.50;;;19.71;70.23
6208;BME280;3137;51.550;7.060;2022-08-25T00:52:27;66279.53;;;19.72;70.27
6208;BME280;3137;51.550;7.060;2022-08-25T01:02:32;66267.25;;;19.61;70.26
6208;BME280;3137;51.550;7.060;2022-08-25T01:04:58;66270.22;;;19.66;70.23
6208;BME280;3137;51.550;7.060;2022-08-25T01:07:25;66267.41;;;19.63;70.06
6208;BME280;3137;51.550;7.060;2022-08-25T01:09:51;66256.38;;;19.56;70.82
6208;BME280;3137;51.550;7.060;2022-08-25T01:12:19;66257.47;;;19.57;70.54
6208;BME280;3137;51.550;7.060;2022-08-25T01:14:47;66258.28;;;19.52;70.62
6208;BME280;3137;51.550;7.060;2022-08-25T01:17:14;66244.09;;;19.44;71.04
6208;BME280;3137;51.550;7.060;2022-08-25T01:19:41;66233.56;;;19.44;70.98
6208;BME280;3137;51.550;7.060;2022-08-25T01:22:07;66242.09;;;19.38;71.29
6208;BME280;3137;51.550;7.060;2022-08-25T01:24:58;66231.25;;;19.33;71.29
6208;BME280;3137;51.550;7.060;2022-08-25T01:27:27;66229.56;;;19.31;71.69
6208;BME280;3137;51.550;7.060;2022-08-25T01:29:53;66226.94;;;19.31;71.35
6208;BME280;3137;51.550;7.060;2022-08-25T01:32:20;66227.34;;;19.29;71.73
6208;BME280;3137;51.550;7.060;2022-08-25T01:34:46;66235.63;;;19.27;71.83
6208;BME280;3137;51.550;7.060;2022-08-25T01:37:17;66232.69;;;19.22;71.54
6208;BME280;3137;51.550;7.060;2022-08-25T01:44:40;66205.00;;;19.09;72.46
6208;BME280;3137;51.550;7.060;2022-08-25T01:47:07;66202.03;;;19.04;72.72
6208;BME280;3137;51.550;7.060;2022-08-25T01:49:34;66187.13;;;18.92;73.38
6208;BME280;3137;51.550;7.060;2022-08-25T01:52:11;66198.03;;;18.90;73.52
6208;BME280;3137;51.550;7.060;2022-08-25T01:54:38;66186.97;;;18.90;73.65
6208;BME280;3137;51.550;7.060;2022-08-25T01:57:04;66181.94;;;18.85;73.64
6208;BME280;3137;51.550;7.060;2022-08-25T01:59:31;66173.19;;;18.80;74.20
6208;BME280;3137;51.550;7.060;2022-08-25T02:01:57;66173.00;;;18.77;74.31
6208;BME280;3137;51.550;7.060;2022-08-25T02:04:26;66159.94;;;18.70;74.37
6208;BME280;3137;51.550;7.060;2022-08-25T02:06:58;66168.94;;;18.71;74.38
6208;BME280;3137;51.550;7.060;2022-08-25T02:09:25;66165.75;;;18.70;74.37
6208;BME280;3137;51.550;7.060;2022-08-25T02:11:51;66167.03;;;18.74;74.26
6208;BME280;3137;51.550;7.060;2022-08-25T02:14:18;66175.88;;;18.73;74.03
6208;BME280;3137;51.550;7.060;2022-08-25T02:16:48;66164.41;;;18.74;73.91
6208;BME280;3137;51.550;7.060;2022-08-25T02:19:15;66176.44;;;18.73;73.95
6208;BME280;3137;51.550;7.060;2022-08-25T02:21:42;66177.56;;;18.74;73.71
6208;BME280;3137;51.550;7.060;2022-08-25T02:24:09;66167.59;;;18.75;73.84
6208;BME280;3137;51.550;7.060;2022-08-25T02:26:35;66167.03;;;18.74;74.51
6208;BME280;3137;51.550;7.060;2022-08-25T02:29:04;66156.59;;;18.67;73.48
6208;BME280;3137;51.550;7.060;2022-08-25T02:31:32;66152.34;;;18.58;73.54
6208;BME280;3137;51.550;7.060;2022-08-25T02:33:58;66151.47;;;18.53;74.36
6208;BME280;3137;51.550;7.060;2022-08-25T02:36:25;66140.06;;;18.47;74.92
6208;BME280;3137;51.550;7.060;2022-08-25T02:38:52;66134.09;;;18.44;75.30
6208;BME280;3137;51.550;7.060;2022-08-25T02:41:20;66125.72;;;18.36;75.65
6208;BME280;3137;51.550;7.060;2022-08-25T02:43:56;66120.34;;;18.27;75.75
6208;BME280;3137;51.550;7.060;2022-08-25T02:46:23;66105.47;;;18.15;76.15
6208;BME280;3137;51.550;7.060;2022-08-25T02:48:50;66090.56;;;18.04;76.86
6208;BME280;3137;51.550;7.060;2022-08-25T02:51:20;66093.19;;;18.04;77.11
6208;BME280;3137;51.550;7.060;2022-08-25T02:56:14;66082.75;;;17.97;77.09
6208;BME280;3137;51.550;7.060;2022-08-25T02:58:41;66081.06;;;17.96;77.30
6208;BME280;3137;51.550;7.060;2022-08-25T03:03:38;66075.34;;;17.88;78.48
6208;BME280;3137;51.550;7.060;2022-08-25T03:06:08;66066.72;;;17.85;78.51
6208;BME280;3137;51.550;7.060;2022-08-25T03:08:36;66065.44;;;17.81;78.90
6208;BME280;3137;51.550;7.060;2022-08-25T03:11:04;66052.25;;;17.72;79.20
6208;BME280;3137;51.550;7.060;2022-08-25T03:13:31;66055.22;;;17.70;79.55
6208;BME280;3137;51.550;7.060;2022-08-25T03:15:59;66055.22;;;17.70;79.62
6208;BME280;3137;51.550;7.060;2022-08-25T03:18:26;66046.63;;;17.67;79.46
6208;BME280;3137;51.550;7.060;2022-08-25T03:20:53;66050.22;;;17.65;79.86
6208;BME280;3137;51.550;7.060;2022-08-25T03:23:20;66047.03;;;17.65;80.09
6208;BME280;3137;51.550;7.060;2022-08-25T03:25:46;66058.09;;;17.65;79.70
6208;BME280;3137;51.550;7.060;2022-08-25T03:30:59;66045.75;;;17.61;80.14
6208;BME280;3137;51.550;7.060;2022-08-25T03:33:30;66043.91;;;17.57;80.55
6208;BME280;3137;51.550;7.060;2022-08-25T03:35:57;66043.91;;;17.57;80.41
6208;BME280;3137;51.550;7.060;2022-08-25T03:38:25;66041.84;;;17.57;80.39
6208;BME280;3137;51.550;7.060;2022-08-25T03:40:52;66041.69;;;17.55;80.36
6208;BME280;3137;51.550;7.060;2022-08-25T03:43:19;66041.53;;;17.52;80.16
6208;BME280;3137;51.550;7.060;2022-08-25T03:45:46;66027.09;;;17.49;80.07
6208;BME280;3137;51.550;7.060;2022-08-25T03:48:14;66030.13;;;17.47;80.05
6208;BME280;3137;51.550;7.060;2022-08-25T03:50:47;66037.13;;;17.41;79.82
6208;BME280;3137;51.550;7.060;2022-08-25T03:53:18;66020.09;;;17.38;79.80
6208;BME280;3137;51.550;7.060;2022-08-25T03:55:45;66013.00;;;17.33;80.09
6208;BME280;3137;51.550;7.060;2022-08-25T03:58:12;66011.75;;;17.30;80.82
6208;BME280;3137;51.550;7.060;2022-08-25T04:00:39;66016.81;;;17.27;81.82
6208;BME280;3137;51.550;7.060;2022-08-25T04:03:06;66006.16;;;17.25;81.89
6208;BME280;3137;51.550;7.060;2022-08-25T04:05:32;65997.56;;;17.22;81.89
6208;BME280;3137;51.550;7.060;2022-08-25T04:07:59;66003.03;;;17.17;82.36
6208;BME280;3137;51.550;7.060;2022-08-25T04:10:28;65989.78;;;17.15;82.48
6208;BME280;3137;51.550;7.060;2022-08-25T04:12:55;65984.59;;;17.08;82.95
6208;BME280;3137;51.550;7.060;2022-08-25T04:15:22;65983.47;;;17.06;82.86
6208;BME280;3137;51.550;7.060;2022-08-25T04:17:53;65983.31;;;17.04;82.88
6208;BME280;3137;51.550;7.060;2022-08-25T04:20:20;65983.69;;;17.02;83.17
6208;BME280;3137;51.550;7.060;2022-08-25T04:22:47;65979.22;;;16.98;83.65
6208;BME280;3137;51.550;7.060;2022-08-25T04:25:13;65990.69;;;16.96;83.78
6208;BME280;3137;51.550;7.060;2022-08-25T04:27:40;65978.53;;;16.95;83.81
6208;BME280;3137;51.550;7.060;2022-08-25T04:30:07;65977.91;;;17.01;83.61
6208;BME280;3137;51.550;7.060;2022-08-25T04:35:02;65972.53;;;16.92;83.96
6208;BME280;3137;51.550;7.060;2022-08-25T04:37:29;65972.53;;;16.92;84.16
6208;BME280;3137;51.550;7.060;2022-08-25T04:39:56;65968.31;;;16.83;84.68
6208;BME280;3137;51.550;7.060;2022-08-25T04:42:22;65961.75;;;16.87;84.25
6208;BME280;3137;51.550;7.060;2022-08-25T04:44:49;65964.13;;;16.91;83.79
6208;BME280;3137;51.550;7.060;2022-08-25T04:47:15;65982.81;;;16.96;83.93
6208;BME280;3137;51.550;7.060;2022-08-25T04:49:41;65991.63;;;16.95;83.60
6208;BME280;3137;51.550;7.060;2022-08-25T04:52:08;65962.28;;;16.87;84.58
6208;BME280;3137;51.550;7.060;2022-08-25T04:54:39;65968.81;;;16.91;84.01
6208;BME280;3137;51.550;7.060;2022-08-25T04:57:06;65961.91;;;16.89;84.04
6208;BME280;3137;51.550;7.060;2022-08-25T04:59:32;65982.03;;;17.00;83.91
6208;BME280;3137;51.550;7.060;2022-08-25T05:01:59;65973.28;;;16.95;83.92
6208;BME280;3137;51.550;7.060;2022-08-25T05:06:58;65974.53;;;16.98;84.06
6208;BME280;3137;51.550;7.060;2022-08-25T05:09:25;65970.09;;;16.94;84.54
6208;BME280;3137;51.550;7.060;2022-08-25T05:11:52;65970.66;;;16.95;85.08
6208;BME280;3137;51.550;7.060;2022-08-25T05:14:19;65982.34;;;17.05;84.43
6208;BME280;3137;51.550;7.060;2022-08-25T05:16:52;65988.47;;;17.11;84.22
6208;BME280;3137;51.550;7.060;2022-08-25T05:19:19;65993.50;;;17.16;84.08
6208;BME280;3137;51.550;7.060;2022-08-25T05:21:45;65999.63;;;17.21;84.25
6208;BME280;3137;51.550;7.060;2022-08-25T05:24:12;66001.88;;;17.23;84.58
6208;BME280;3137;51.550;7.060;2022-08-25T05:26:38;66013.81;;;17.29;84.24
6208;BME280;3137;51.550;7.060;2022-08-25T05:31:33;66019.31;;;17.42;83.36
6208;BME280;3137;51.550;7.060;2022-08-25T05:34:07;66038.16;;;17.49;83.26
6208;BME280;3137;51.550;7.060;2022-08-25T05:36:34;66049.88;;;17.60;82.92
6208;BME280;3137;51.550;7.060;2022-08-25T05:39:01;66052.44;;;17.67;82.79
6208;BME280;3137;51.550;7.060;2022-08-25T05:41:29;66064.00;;;17.75;82.55
6208;BME280;3137;51.550;7.060;2022-08-25T05:43:56;66075.50;;;17.91;82.19
6208;BME280;3137;51.550;7.060;2022-08-25T05:46:23;66082.19;;;17.97;82.05
6208;BME280;3137;51.550;7.060;2022-08-25T05:48:51;66092.06;;;18.03;81.91
6208;BME280;3137;51.550;7.060;2022-08-25T05:51:18;66096.28;;;18.12;81.55
6208;BME280;3137;51.550;7.060;2022-08-25T05:53:46;66115.91;;;18.23;81.25
6208;BME280;3137;51.550;7.060;2022-08-25T05:58:41;66123.47;;;18.34;80.55
6208;BME280;3137;51.550;7.060;2022-08-25T06:03:53;66143.97;;;18.51;80.78
6208;BME280;3137;51.550;7.060;2022-08-25T06:06:21;66156.25;;;18.62;80.22
6208;BME280;3137;51.550;7.060;2022-08-25T06:08:48;66164.22;;;18.72;80.04
6208;BME280;3137;51.550;7.060;2022-08-25T06:11:15;66172.78;;;18.82;80.02
6208;BME280;3137;51.550;7.060;2022-08-25T06:13:42;66184.34;;;18.90;79.92
6208;BME280;3137;51.550;7.060;2022-08-25T06:18:35;66216.97;;;19.15;78.30
6208;BME280;3137;51.550;7.060;2022-08-25T06:21:12;66225.66;;;19.28;78.28
6208;BME280;3137;51.550;7.060;2022-08-25T06:26:09;66248.53;;;19.48;76.90
6208;BME280;3137;51.550;7.060;2022-08-25T06:28:46;66254.84;;;19.57;76.30
6208;BME280;3137;51.550;7.060;2022-08-25T06:31:12;66261.03;;;19.62;76.85
6208;BME280;3137;51.550;7.060;2022-08-25T06:36:05;66290.72;;;19.82;76.21
6208;BME280;3137;51.550;7.060;2022-08-25T06:38:32;66297.91;;;19.96;76.31
6208;BME280;3137;51.550;7.060;2022-08-25T06:43:33;66326.41;;;20.22;74.53
6208;BME280;3137;51.550;7.060;2022-08-25T06:46:09;66330.72;;;20.23;74.33
6208;BME280;3137;51.550;7.060;2022-08-25T06:51:07;66354.22;;;20.45;74.13
6208;BME280;3137;51.550;7.060;2022-08-25T06:53:39;66359.16;;;20.56;73.35
6208;BME280;3137;51.550;7.060;2022-08-25T06:56:05;66375.63;;;20.67;73.73
6208;BME280;3137;51.550;7.060;2022-08-25T06:58:32;66403.34;;;20.80;73.38
6208;BME280;3137;51.550;7.060;2022-08-25T07:01:10;66407.72;;;20.91;73.22
6208;BME280;3137;51.550;7.060;2022-08-25T07:03:45;66428.44;;;21.10;71.81
6208;BME280;3137;51.550;7.060;2022-08-25T07:06:13;66434.88;;;21.21;72.21
6208;BME280;3137;51.550;7.060;2022-08-25T07:08:41;66456.81;;;21.33;72.00
6208;BME280;3137;51.550;7.060;2022-08-25T07:11:09;66455.38;;;21.44;71.17
6208;BME280;3137;51.550;7.060;2022-08-25T07:13:43;66472.94;;;21.55;70.65
6208;BME280;3137;51.550;7.060;2022-08-25T07:18:37;66489.03;;;21.67;70.10
6208;BME280;3137;51.550;7.060;2022-08-25T07:21:04;66504.28;;;21.84;70.02
6208;BME280;3137;51.550;7.060;2022-08-25T07:23:34;66521.91;;;21.95;68.90
6208;BME280;3137;51.550;7.060;2022-08-25T07:26:13;66516.34;;;21.99;69.16
6208;BME280;3137;51.550;7.060;2022-08-25T07:29:01;66540.38;;;22.12;67.62
6208;BME280;3137;51.550;7.060;2022-08-25T07:31:28;66548.38;;;22.21;67.84
6208;BME280;3137;51.550;7.060;2022-08-25T07:33:55;66554.69;;;22.30;67.95
6208;BME280;3137;51.550;7.060;2022-08-25T07:36:42;66562.38;;;22.34;67.88
6208;BME280;3137;51.550;7.060;2022-08-25T07:39:08;66570.75;;;22.42;68.22
6208;BME280;3137;51.550;7.060;2022-08-25T07:44:03;66589.41;;;22.61;68.05
6208;BME280;3137;51.550;7.060;2022-08-25T07:46:30;66607.16;;;22.75;66.81
6208;BME280;3137;51.550;7.060;2022-08-25T07:51:25;66630.72;;;22.96;66.03
6208;BME280;3137;51.550;7.060;2022-08-25T07:53:52;66639.69;;;23.04;64.99
6208;BME280;3137;51.550;7.060;2022-08-25T07:58:46;66653.69;;;23.17;64.63
6208;BME280;3137;51.550;7.060;2022-08-25T08:03:44;66653.59;;;23.24;64.74
6208;BME280;3137;51.550;7.060;2022-08-25T08:06:19;66656.94;;;23.27;64.60
6208;BME280;3137;51.550;7.060;2022-08-25T08:11:32;66684.34;;;23.43;63.56
6208;BME280;3137;51.550;7.060;2022-08-25T08:16:28;66688.41;;;23.49;62.01
6208;BME280;3137;51.550;7.060;2022-08-25T08:18:56;66689.16;;;23.52;63.16
6208;BME280;3137;51.550;7.060;2022-08-25T08:23:55;66713.09;;;23.71;63.68
6208;BME280;3137;51.550;7.060;2022-08-25T08:26:25;66729.53;;;23.88;62.14
6208;BME280;3137;51.550;7.060;2022-08-25T08:29:13;66757.41;;;24.11;60.67
6208;BME280;3137;51.550;7.060;2022-08-25T08:31:41;66767.09;;;24.23;60.15
6208;BME280;3137;51.550;7.060;2022-08-25T08:34:14;66768.75;;;24.24;59.76
6208;BME280;3137;51.550;7.060;2022-08-25T08:39:10;66780.38;;;24.32;59.80
6208;BME280;3137;51.550;7.060;2022-08-25T08:50:23;66795.00;;;24.46;59.00
6208;BME280;3137;51.550;7.060;2022-08-25T08:58:06;66806.38;;;24.58;59.28
6208;BME280;3137;51.550;7.060;2022-08-25T09:00:41;66815.75;;;24.64;59.29
6208;BME280;3137;51.550;7.060;2022-08-25T09:05:55;66842.69;;;24.89;57.47
6208;BME280;3137;51.550;7.060;2022-08-25T09:08:25;66852.94;;;25.01;57.24
6208;BME280;3137;51.550;7.060;2022-08-25T09:42:58;66966.22;;;26.01;53.31
6208;BME280;3137;51.550;7.060;2022-08-25T09:47:59;66965.66;;;26.00;52.46
6208;BME280;3137;51.550;7.060;2022-08-25T09:53:10;66991.31;;;26.21;52.21
6208;BME280;3137;51.550;7.060;2022-08-25T09:55:43;67002.88;;;26.37;52.89
6208;BME280;3137;51.550;7.060;2022-08-25T10:06:21;67020.84;;;26.53;50.66
6208;BME280;3137;51.550;7.060;2022-08-25T10:24:47;67072.97;;;26.98;48.87
6208;BME280;3137;51.550;7.060;2022-08-25T10:29:59;67086.06;;;27.12;48.34
6208;BME280;3137;51.550;7.060;2022-08-25T10:32:44;67101.66;;;27.24;46.43
6208;BME280;3137;51.550;7.060;2022-08-25T10:56:28;67126.94;;;27.47;45.81
6208;BME280;3137;51.550;7.060;2022-08-25T10:59:34;67125.81;;;27.55;44.76
6208;BME280;3137;51.550;7.060;2022-08-25T11:12:28;67138.91;;;27.60;45.22
6208;BME280;3137;51.550;7.060;2022-08-25T11:20:19;67123.44;;;27.51;44.43
6208;BME280;3137;51.550;7.060;2022-08-25T11:25:59;67146.06;;;27.64;45.08
6208;BME280;3137;51.550;7.060;2022-08-25T11:28:50;67143.94;;;27.64;45.40
6208;BME280;3137;51.550;7.060;2022-08-25T11:31:20;67147.19;;;27.65;45.81
6208;BME280;3137;51.550;7.060;2022-08-25T11:33:49;67157.16;;;27.72;45.00
6208;BME280;3137;51.550;7.060;2022-08-25T11:36:32;67157.47;;;27.77;43.86
6208;BME280;3137;51.550;7.060;2022-08-25T11:52:57;67168.59;;;27.94;43.06
6208;BME280;3137;51.550;7.060;2022-08-25T11:55:50;67188.81;;;28.03;43.96
6208;BME280;3137;51.550;7.060;2022-08-25T12:01:00;67210.91;;;28.25;42.37
6208;BME280;3137;51.550;7.060;2022-08-25T12:14:36;67255.78;;;28.63;40.63
6208;BME280;3137;51.550;7.060;2022-08-25T12:41:23;67237.34;;;28.49;41.86
6208;BME280;3137;51.550;7.060;2022-08-25T12:56:56;67251.97;;;28.62;40.95
6208;BME280;3137;51.550;7.060;2022-08-25T13:04:40;67242.97;;;28.54;40.20
6208;BME280;3137;51.550;7.060;2022-08-25T13:13:03;67249.19;;;28.60;39.15
6208;BME280;3137;51.550;7.060;2022-08-25T13:23:56;67254.09;;;28.62;39.42
6208;BME280;3137;51.550;7.060;2022-08-25T13:29:24;67253.09;;;28.63;39.20
6208;BME280;3137;51.550;7.060;2022-08-25T13:40:25;67242.16;;;28.58;40.53
6208;BME280;3137;51.550;7.060;2022-08-25T13:43:07;67250.72;;;28.59;40.70
6208;BME280;3137;51.550;7.060;2022-08-25T13:50:46;67276.03;;;28.82;39.89
6208;BME280;3137;51.550;7.060;2022-08-25T13:53:22;67264.06;;;28.78;39.33
6208;BME280;3137;51.550;7.060;2022-08-25T13:55:52;67280.97;;;28.84;38.82
6208;BME280;3137;51.550;7.060;2022-08-25T13:58:28;67268.03;;;28.82;38.94
6208;BME280;3137;51.550;7.060;2022-08-25T14:01:21;67263.50;;;28.77;38.79
6208;BME280;3137;51.550;7.060;2022-08-25T14:06:46;67313.22;;;29.15;36.49
6208;BME280;3137;51.550;7.060;2022-08-25T14:09:16;67302.50;;;29.05;36.61
6208;BME280;3137;51.550;7.060;2022-08-25T14:11:55;67285.03;;;28.90;36.66
6208;BME280;3137;51.550;7.060;2022-08-25T14:16:50;67291.81;;;28.96;36.80
6208;BME280;3137;51.550;7.060;2022-08-25T14:19:22;67285.19;;;28.92;35.96
6208;BME280;3137;51.550;7.060;2022-08-25T14:24:22;67286.91;;;28.94;36.65
6208;BME280;3137;51.550;7.060;2022-08-25T14:29:20;67279.41;;;28.85;36.64
6208;BME280;3137;51.550;7.060;2022-08-25T14:31:52;67285.75;;;28.93;37.93
6208;BME280;3137;51.550;7.060;2022-08-25T14:34:21;67281.25;;;28.89;39.24
6208;BME280;3137;51.550;7.060;2022-08-25T14:36:49;67283.94;;;28.89;39.04
6208;BME280;3137;51.550;7.060;2022-08-25T14:39:16;67274.34;;;28.80;38.71
6208;BME280;3137;51.550;7.060;2022-08-25T14:41:43;67270.97;;;28.77;39.30
6208;BME280;3137;51.550;7.060;2022-08-25T14:44:18;67265.50;;;28.74;39.12
6208;BME280;3137;51.550;7.060;2022-08-25T14:46:51;67262.66;;;28.72;38.98
6208;BME280;3137;51.550;7.060;2022-08-25T14:51:52;67257.88;;;28.63;39.51
6208;BME280;3137;51.550;7.060;2022-08-25T14:54:22;67247.34;;;28.56;39.12
6208;BME280;3137;51.550;7.060;2022-08-25T15:01:44;67233.97;;;28.46;39.62
6208;BME280;3137;51.550;7.060;2022-08-25T15:14:07;67241.88;;;28.53;39.47
6208;BME280;3137;51.550;7.060;2022-08-25T15:16:40;67254.66;;;28.62;39.33
6208;BME280;3137;51.550;7.060;2022-08-25T15:21:35;67232.88;;;28.45;39.53
6208;BME280;3137;51.550;7.060;2022-08-25T15:24:06;67229.91;;;28.40;39.73
6208;BME280;3137;51.550;7.060;2022-08-25T15:29:10;67206.38;;;28.21;40.17
6208;BME280;3137;51.550;7.060;2022-08-25T15:31:37;67198.50;;;28.14;40.05
6208;BME280;3137;51.550;7.060;2022-08-25T15:36:37;67199.50;;;28.12;39.32
6208;BME280;3137;51.550;7.060;2022-08-25T15:39:04;67199.66;;;28.15;39.75
6208;BME280;3137;51.550;7.060;2022-08-25T15:46:26;67208.50;;;28.20;40.95
6208;BME280;3137;51.550;7.060;2022-08-25T15:51:26;67228.22;;;28.38;40.06
6208;BME280;3137;51.550;7.060;2022-08-25T15:56:20;67239.63;;;28.51;38.72
6208;BME280;3137;51.550;7.060;2022-08-25T15:58:53;67242.16;;;28.58;38.50
6208;BME280;3137;51.550;7.060;2022-08-25T16:08:43;67268.31;;;28.77;39.99
6208;BME280;3137;51.550;7.060;2022-08-25T16:11:19;67264.94;;;28.74;39.10
6208;BME280;3137;51.550;7.060;2022-08-25T16:16:14;67262.66;;;28.72;38.53
6208;BME280;3137;51.550;7.060;2022-08-25T16:18:41;67270.97;;;28.77;38.60
6208;BME280;3137;51.550;7.060;2022-08-25T16:28:39;67267.59;;;28.74;39.09
6208;BME280;3137;51.550;7.060;2022-08-25T16:31:11;67258.19;;;28.68;38.82
6208;BME280;3137;51.550;7.060;2022-08-25T16:33:38;67255.38;;;28.65;39.25
6208;BME280;3137;51.550;7.060;2022-08-25T16:36:31;67250.84;;;28.61;38.57
6208;BME280;3137;51.550;7.060;2022-08-25T16:38:58;67247.34;;;28.56;38.71
6208;BME280;3137;51.550;7.060;2022-08-25T16:41:28;67241.16;;;28.50;39.32
6208;BME280;3137;51.550;7.060;2022-08-25T16:44:03;67237.78;;;28.47;39.17
6208;BME280;3137;51.550;7.060;2022-08-25T16:51:32;67235.09;;;28.47;39.71
6208;BME280;3137;51.550;7.060;2022-08-25T16:56:48;67228.22;;;28.38;39.78
6208;BME280;3137;51.550;7.060;2022-08-25T16:59:20;67223.31;;;28.36;40.02
6208;BME280;3137;51.550;7.060;2022-08-25T17:04:16;67231.19;;;28.43;39.93
6208;BME280;3137;51.550;7.060;2022-08-25T17:06:43;67227.66;;;28.38;40.14
6208;BME280;3137;51.550;7.060;2022-08-25T17:11:49;67218.63;;;28.30;40.09
6208;BME280;3137;51.550;7.060;2022-08-25T17:16:45;67209.22;;;28.23;40.42
6208;BME280;3137;51.550;7.060;2022-08-25T17:21:43;67212.88;;;28.22;40.40
6208;BME280;3137;51.550;7.060;2022-08-25T17:24:12;67197.81;;;28.11;41.24
6208;BME280;3137;51.550;7.060;2022-08-25T17:29:06;67183.75;;;27.98;41.38
6208;BME280;3137;51.550;7.060;2022-08-25T17:31:34;67164.50;;;27.88;41.46
6208;BME280;3137;51.550;7.060;2022-08-25T17:34:07;67176.44;;;27.91;41.70
6208;BME280;3137;51.550;7.060;2022-08-25T17:39:01;67166.88;;;27.83;41.19
6208;BME280;3137;51.550;7.060;2022-08-25T17:41:28;67161.25;;;27.78;41.66
6208;BME280;3137;51.550;7.060;2022-08-25T17:43:56;67159.00;;;27.76;42.18
6208;BME280;3137;51.550;7.060;2022-08-25T17:46:22;67154.50;;;27.72;42.33
6208;BME280;3137;51.550;7.060;2022-08-25T17:56:15;67115.13;;;27.36;43.31
6208;BME280;3137;51.550;7.060;2022-08-25T17:58:42;67105.00;;;27.27;43.69
6208;BME280;3137;51.550;7.060;2022-08-25T18:01:27;67097.72;;;27.20;44.27
6208;BME280;3137;51.550;7.060;2022-08-25T18:03:55;67085.78;;;27.17;44.02
6208;BME280;3137;51.550;7.060;2022-08-25T18:08:50;67084.22;;;27.08;44.75
6208;BME280;3137;51.550;7.060;2022-08-25T18:11:24;67075.91;;;27.03;45.11
6208;BME280;3137;51.550;7.060;2022-08-25T18:13:51;67070.16;;;26.95;45.04
6208;BME280;3137;51.550;7.060;2022-08-25T18:16:19;67058.50;;;26.87;45.79
6208;BME280;3137;51.550;7.060;2022-08-25T18:18:47;67048.78;;;26.76;46.19
6208;BME280;3137;51.550;7.060;2022-08-25T18:21:15;67032.63;;;26.64;47.07
6208;BME280;3137;51.550;7.060;2022-08-25T18:23:43;67019.56;;;26.49;47.33
6208;BME280;3137;51.550;7.060;2022-08-25T18:26:11;67006.09;;;26.37;47.72
6208;BME280;3137;51.550;7.060;2022-08-25T18:28:38;66998.38;;;26.32;48.56
6208;BME280;3137;51.550;7.060;2022-08-25T18:31:09;66985.84;;;26.19;48.95
6208;BME280;3137;51.550;7.060;2022-08-25T18:33:37;66973.66;;;26.10;49.39
6208;BME280;3137;51.550;7.060;2022-08-25T18:36:08;66964.78;;;25.95;49.65
6208;BME280;3137;51.550;7.060;2022-08-25T18:38:34;66939.81;;;25.77;50.41
6208;BME280;3137;51.550;7.060;2022-08-25T18:41:24;66929.13;;;25.67;50.93
6208;BME280;3137;51.550;7.060;2022-08-25T18:43:51;66915.09;;;25.55;51.43
6208;BME280;3137;51.550;7.060;2022-08-25T18:46:18;66906.09;;;25.46;52.46
6208;BME280;3137;51.550;7.060;2022-08-25T18:48:48;66892.06;;;25.34;52.67
6208;BME280;3137;51.550;7.060;2022-08-25T18:51:18;66879.31;;;25.24;53.62
6208;BME280;3137;51.550;7.060;2022-08-25T18:56:17;66874.13;;;25.17;53.45
6208;BME280;3137;51.550;7.060;2022-08-25T18:58:45;66875.66;;;25.16;53.71
6208;BME280;3137;51.550;7.060;2022-08-25T19:01:14;66869.22;;;25.15;53.64
6208;BME280;3137;51.550;7.060;2022-08-25T19:06:08;66875.38;;;25.21;53.15
6208;BME280;3137;51.550;7.060;2022-08-25T19:08:35;66875.81;;;25.19;53.29
6208;BME280;3137;51.550;7.060;2022-08-25T19:11:07;66869.22;;;25.15;53.46
6208;BME280;3137;51.550;7.060;2022-08-25T19:13:33;66874.69;;;25.18;53.45
6208;BME280;3137;51.550;7.060;2022-08-25T19:16:16;66871.31;;;25.15;53.14
6208;BME280;3137;51.550;7.060;2022-08-25T19:18:47;66870.19;;;25.14;53.55
6208;BME280;3137;51.550;7.060;2022-08-25T19:23:49;66858.00;;;25.05;54.16
6208;BME280;3137;51.550;7.060;2022-08-25T19:26:16;66858.38;;;25.03;53.89
6208;BME280;3137;51.550;7.060;2022-08-25T19:28:44;66851.78;;;24.99;54.22
6208;BME280;3137;51.550;7.060;2022-08-25T19:31:17;66854.88;;;24.97;53.80
6208;BME280;3137;51.550;7.060;2022-08-25T19:33:46;66846.19;;;24.94;54.12
6208;BME280;3137;51.550;7.060;2022-08-25T19:36:15;66839.88;;;24.86;54.52
6208;BME280;3137;51.550;7.060;2022-08-25T19:41:10;66827.38;;;24.73;54.95
6208;BME280;3137;51.550;7.060;2022-08-25T19:43:44;66824.00;;;24.69;55.43
6208;BME280;3137;51.550;7.060;2022-08-25T19:49:06;66809.72;;;24.61;55.89
6208;BME280;3137;51.550;7.060;2022-08-25T19:51:41;66804.09;;;24.56;55.94
6208;BME280;3137;51.550;7.060;2022-08-25T19:54:14;66797.78;;;24.48;56.66
6208;BME280;3137;51.550;7.060;2022-08-25T19:56:42;66788.81;;;24.40;57.20
6208;BME280;3137;51.550;7.060;2022-08-25T19:59:25;66783.63;;;24.33;57.38
6208;BME280;3137;51.550;7.060;2022-08-25T20:02:11;66773.09;;;24.26;57.96
6208;BME280;3137;51.550;7.060;2022-08-25T20:04:41;66765.94;;;24.22;57.72
6208;BME280;3137;51.550;7.060;2022-08-25T20:07:15;66764.13;;;24.17;58.03
6208;BME280;3137;51.550;7.060;2022-08-25T20:09:43;66757.66;;;24.07;58.64
6208;BME280;3137;51.550;7.060;2022-08-25T20:12:10;66748.44;;;24.03;58.78
6208;BME280;3137;51.550;7.060;2022-08-25T20:14:37;66737.09;;;24.00;58.64
6208;BME280;3137;51.550;7.060;2022-08-25T20:24:43;66712.53;;;23.71;60.15
6208;BME280;3137;51.550;7.060;2022-08-25T20:27:33;66706.41;;;23.65;59.67